sensor_id;sensor_type;location;lat;lon;timestamp;P1;durP1;ratioP1;P2;durP2;ratioP2
79640;SDS011;69115;49.904;14.390;2023-04-26T00:00:43;13.18;;;5.70;;
79640;SDS011;69115;49.904;14.390;2023-04-26T00:03:09;13.85;;;6.45;;
79640;SDS011;69115;49.904;14.390;2023-04-26T00:05:37;12.38;;;6.22;;
79640;SDS011;69115;49.904;14.390;2023-04-26T00:08:02;12.93;;;5.72;;
79640;SDS011;69115;49.904;14.390;2023-04-26T00:10:28;13.85;;;6.80;;
79640;SDS011;69115;49.904;14.390;2023-04-26T00:12:54;11.50;;;6.35;;
79640;SDS011;69115;49.904;14.390;2023-04-26T00:15:20;17.38;;;6.68;;
79640;SDS011;69115;49.904;14.390;2023-04-26T00:17:45;14.65;;;7.22;;
79640;SDS011;69115;49.904;14.390;2023-04-26T00:20:11;12.85;;;5.65;;
79640;SDS011;69115;49.904;14.390;2023-04-26T00:22:37;13.90;;;5.20;;
79640;SDS011;69115;49.904;14.390;2023-04-26T00:25:03;10.02;;;4.85;;
79640;SDS011;69115;49.904;14.390;2023-04-26T00:27:29;13.38;;;5.15;;
79640;SDS011;69115;49.904;14.390;2023-04-26T00:29:55;12.13;;;5.03;;
79640;SDS011;69115;49.904;14.390;2023-04-26T00:32:21;9.43;;;4.60;;
79640;SDS011;69115;49.904;14.390;2023-04-26T00:34:46;10.82;;;4.82;;
79640;SDS011;69115;49.904;14.390;2023-04-26T00:37:12;11.23;;;4.78;;
79640;SDS011;69115;49.904;14.390;2023-04-26T00:39:37;10.93;;;4.68;;
79640;SDS011;69115;49.904;14.390;2023-04-26T00:42:02;12.20;;;5.32;;
79640;SDS011;69115;49.904;14.390;2023-04-26T00:44:28;11.50;;;5.28;;
79640;SDS011;69115;49.904;14.390;2023-04-26T00:46:53;11.25;;;5.00;;
79640;SDS011;69115;49.904;14.390;2023-04-26T00:49:21;15.35;;;6.03;;
79640;SDS011;69115;49.904;14.390;2023-04-26T00:51:48;10.32;;;4.75;;
79640;SDS011;69115;49.904;14.390;2023-04-26T00:54:15;15.50;;;6.10;;
79640;SDS011;69115;49.904;14.390;2023-04-26T00:56:40;12.35;;;5.22;;
79640;SDS011;69115;49.904;14.390;2023-04-26T00:59:06;12.27;;;5.75;;
79640;SDS011;69115;49.904;14.390;2023-04-26T01:01:32;18.58;;;6.72;;
79640;SDS011;69115;49.904;14.390;2023-04-26T01:03:58;17.00;;;6.38;;
79640;SDS011;69115;49.904;14.390;2023-04-26T01:06:24;13.13;;;6.88;;
79640;SDS011;69115;49.904;14.390;2023-04-26T01:08:49;20.75;;;7.03;;
79640;SDS011;69115;49.904;14.390;2023-04-26T01:11:17;19.25;;;7.18;;
79640;SDS011;69115;49.904;14.390;2023-04-26T01:13:44;15.80;;;6.88;;
79640;SDS011;69115;49.904;14.390;2023-04-26T01:16:10;14.05;;;6.75;;
79640;SDS011;69115;49.904;14.390;2023-04-26T01:18:36;12.57;;;5.90;;
79640;SDS011;69115;49.904;14.390;2023-04-26T01:21:01;16.55;;;7.07;;
79640;SDS011;69115;49.904;14.390;2023-04-26T01:23:28;15.32;;;7.03;;
79640;SDS011;69115;49.904;14.390;2023-04-26T01:25:54;19.10;;;6.80;;
79640;SDS011;69115;49.904;14.390;2023-04-26T01:28:20;12.55;;;6.80;;
79640;SDS011;69115;49.904;14.390;2023-04-26T01:30:45;14.98;;;7.03;;
79640;SDS011;69115;49.904;14.390;2023-04-26T01:33:11;11.93;;;6.22;;
79640;SDS011;69115;49.904;14.390;2023-04-26T01:35:36;16.38;;;6.78;;
79640;SDS011;69115;49.904;14.390;2023-04-26T01:38:02;16.45;;;7.45;;
79640;SDS011;69115;49.904;14.390;2023-04-26T01:40:28;17.05;;;7.25;;
79640;SDS011;69115;49.904;14.390;2023-04-26T01:42:53;15.10;;;7.03;;
79640;SDS011;69115;49.904;14.390;2023-04-26T01:45:19;12.48;;;5.95;;
79640;SDS011;69115;49.904;14.390;2023-04-26T01:47:44;13.63;;;5.95;;
79640;SDS011;69115;49.904;14.390;2023-04-26T01:50:09;18.30;;;7.40;;
79640;SDS011;69115;49.904;14.390;2023-04-26T01:52:35;16.83;;;7.35;;
79640;SDS011;69115;49.904;14.390;2023-04-26T01:55:00;13.10;;;6.32;;
79640;SDS011;69115;49.904;14.390;2023-04-26T01:57:26;15.20;;;6.80;;
79640;SDS011;69115;49.904;14.390;2023-04-26T01:59:51;13.75;;;6.80;;
79640;SDS011;69115;49.904;14.390;2023-04-26T02:02:18;17.17;;;7.85;;
79640;SDS011;69115;49.904;14.390;2023-04-26T02:04:43;15.70;;;6.82;;
79640;SDS011;69115;49.904;14.390;2023-04-26T02:07:09;14.82;;;6.20;;
79640;SDS011;69115;49.904;14.390;2023-04-26T02:09:34;16.70;;;7.30;;
79640;SDS011;69115;49.904;14.390;2023-04-26T02:12:00;13.77;;;7.57;;
79640;SDS011;69115;49.904;14.390;2023-04-26T02:14:25;18.08;;;7.50;;
79640;SDS011;69115;49.904;14.390;2023-04-26T02:16:50;14.20;;;6.78;;
79640;SDS011;69115;49.904;14.390;2023-04-26T02:19:16;14.25;;;6.47;;
79640;SDS011;69115;49.904;14.390;2023-04-26T02:21:54;16.20;;;6.20;;
79640;SDS011;69115;49.904;14.390;2023-04-26T02:24:24;16.58;;;6.82;;
79640;SDS011;69115;49.904;14.390;2023-04-26T02:26:50;15.05;;;7.50;;
79640;SDS011;69115;49.904;14.390;2023-04-26T02:29:16;17.95;;;6.85;;
79640;SDS011;69115;49.904;14.390;2023-04-26T02:31:42;11.50;;;5.82;;
79640;SDS011;69115;49.904;14.390;2023-04-26T02:34:07;13.77;;;6.90;;
79640;SDS011;69115;49.904;14.390;2023-04-26T02:36:33;12.40;;;6.70;;
79640;SDS011;69115;49.904;14.390;2023-04-26T02:38:58;14.93;;;6.72;;
79640;SDS011;69115;49.904;14.390;2023-04-26T02:41:24;13.13;;;6.63;;
79640;SDS011;69115;49.904;14.390;2023-04-26T02:43:49;14.88;;;7.13;;
79640;SDS011;69115;49.904;14.390;2023-04-26T02:46:15;14.90;;;7.10;;
79640;SDS011;69115;49.904;14.390;2023-04-26T02:48:41;11.45;;;6.05;;
79640;SDS011;69115;49.904;14.390;2023-04-26T02:51:06;15.02;;;6.40;;
79640;SDS011;69115;49.904;14.390;2023-04-26T02:53:32;20.55;;;6.95;;
79640;SDS011;69115;49.904;14.390;2023-04-26T02:55:57;16.67;;;6.60;;
79640;SDS011;69115;49.904;14.390;2023-04-26T02:58:24;16.58;;;6.80;;
79640;SDS011;69115;49.904;14.390;2023-04-26T03:00:50;14.80;;;6.05;;
79640;SDS011;69115;49.904;14.390;2023-04-26T03:03:16;18.83;;;7.65;;
79640;SDS011;69115;49.904;14.390;2023-04-26T03:05:41;18.13;;;7.80;;
79640;SDS011;69115;49.904;14.390;2023-04-26T03:08:07;17.92;;;7.38;;
79640;SDS011;69115;49.904;14.390;2023-04-26T03:10:33;14.82;;;7.18;;
79640;SDS011;69115;49.904;14.390;2023-04-26T03:12:58;17.88;;;7.47;;
79640;SDS011;69115;49.904;14.390;2023-04-26T03:15:23;19.00;;;7.50;;
79640;SDS011;69115;49.904;14.390;2023-04-26T03:17:49;15.10;;;7.38;;
79640;SDS011;69115;49.904;14.390;2023-04-26T03:20:14;15.60;;;7.05;;
79640;SDS011;69115;49.904;14.390;2023-04-26T03:22:40;13.43;;;5.75;;
79640;SDS011;69115;49.904;14.390;2023-04-26T03:25:05;15.30;;;5.53;;
79640;SDS011;69115;49.904;14.390;2023-04-26T03:27:31;13.45;;;6.25;;
79640;SDS011;69115;49.904;14.390;2023-04-26T03:29:57;12.82;;;6.18;;
79640;SDS011;69115;49.904;14.390;2023-04-26T03:32:22;14.60;;;6.15;;
79640;SDS011;69115;49.904;14.390;2023-04-26T03:34:48;11.95;;;6.07;;
79640;SDS011;69115;49.904;14.390;2023-04-26T03:37:14;12.70;;;6.50;;
79640;SDS011;69115;49.904;14.390;2023-04-26T03:39:39;14.75;;;6.35;;
79640;SDS011;69115;49.904;14.390;2023-04-26T03:42:05;16.58;;;6.88;;
79640;SDS011;69115;49.904;14.390;2023-04-26T03:44:30;15.55;;;6.35;;
79640;SDS011;69115;49.904;14.390;2023-04-26T03:46:55;14.20;;;5.75;;
79640;SDS011;69115;49.904;14.390;2023-04-26T03:49:21;9.95;;;5.40;;
79640;SDS011;69115;49.904;14.390;2023-04-26T03:51:46;12.40;;;6.22;;
79640;SDS011;69115;49.904;14.390;2023-04-26T03:54:12;14.13;;;5.78;;
79640;SDS011;69115;49.904;14.390;2023-04-26T03:56:38;11.88;;;5.65;;
79640;SDS011;69115;49.904;14.390;2023-04-26T03:59:04;10.93;;;5.80;;
79640;SDS011;69115;49.904;14.390;2023-04-26T04:01:29;11.65;;;5.03;;
79640;SDS011;69115;49.904;14.390;2023-04-26T04:03:55;12.52;;;6.50;;
79640;SDS011;69115;49.904;14.390;2023-04-26T04:06:21;12.27;;;5.28;;
79640;SDS011;69115;49.904;14.390;2023-04-26T04:08:46;15.50;;;6.47;;
79640;SDS011;69115;49.904;14.390;2023-04-26T04:11:12;10.70;;;5.25;;
79640;SDS011;69115;49.904;14.390;2023-04-26T04:13:37;18.42;;;6.40;;
79640;SDS011;69115;49.904;14.390;2023-04-26T04:16:03;14.40;;;6.53;;
79640;SDS011;69115;49.904;14.390;2023-04-26T04:18:29;14.43;;;6.13;;
79640;SDS011;69115;49.904;14.390;2023-04-26T04:20:54;14.40;;;6.07;;
79640;SDS011;69115;49.904;14.390;2023-04-26T04:23:19;15.52;;;5.85;;
79640;SDS011;69115;49.904;14.390;2023-04-26T04:25:45;11.05;;;5.28;;
79640;SDS011;69115;49.904;14.390;2023-04-26T04:28:12;13.48;;;5.32;;
79640;SDS011;69115;49.904;14.390;2023-04-26T04:30:38;12.88;;;5.35;;
79640;SDS011;69115;49.904;14.390;2023-04-26T04:33:03;16.10;;;5.72;;
79640;SDS011;69115;49.904;14.390;2023-04-26T04:35:29;14.27;;;5.53;;
79640;SDS011;69115;49.904;14.390;2023-04-26T04:37:58;12.80;;;4.78;;
79640;SDS011;69115;49.904;14.390;2023-04-26T04:40:24;15.35;;;6.53;;
79640;SDS011;69115;49.904;14.390;2023-04-26T04:42:50;16.05;;;5.57;;
79640;SDS011;69115;49.904;14.390;2023-04-26T04:45:16;12.05;;;5.57;;
79640;SDS011;69115;49.904;14.390;2023-04-26T04:47:42;23.02;;;8.57;;
79640;SDS011;69115;49.904;14.390;2023-04-26T04:50:09;19.48;;;7.60;;
79640;SDS011;69115;49.904;14.390;2023-04-26T04:52:34;25.63;;;9.75;;
79640;SDS011;69115;49.904;14.390;2023-04-26T04:55:00;24.92;;;10.20;;
79640;SDS011;69115;49.904;14.390;2023-04-26T04:57:26;25.95;;;10.30;;
79640;SDS011;69115;49.904;14.390;2023-04-26T04:59:52;25.83;;;8.55;;
79640;SDS011;69115;49.904;14.390;2023-04-26T05:02:17;30.67;;;9.10;;
79640;SDS011;69115;49.904;14.390;2023-04-26T05:04:43;25.77;;;9.20;;
79640;SDS011;69115;49.904;14.390;2023-04-26T05:07:09;27.63;;;9.05;;
79640;SDS011;69115;49.904;14.390;2023-04-26T05:09:34;17.65;;;8.02;;
79640;SDS011;69115;49.904;14.390;2023-04-26T05:12:01;16.27;;;5.82;;
79640;SDS011;69115;49.904;14.390;2023-04-26T05:14:28;16.83;;;6.43;;
79640;SDS011;69115;49.904;14.390;2023-04-26T05:16:53;16.15;;;6.35;;
79640;SDS011;69115;49.904;14.390;2023-04-26T05:19:19;12.77;;;6.00;;
79640;SDS011;69115;49.904;14.390;2023-04-26T05:21:44;10.02;;;4.25;;
79640;SDS011;69115;49.904;14.390;2023-04-26T05:24:10;14.68;;;5.75;;
79640;SDS011;69115;49.904;14.390;2023-04-26T05:26:35;18.38;;;8.38;;
79640;SDS011;69115;49.904;14.390;2023-04-26T05:29:00;22.08;;;8.43;;
79640;SDS011;69115;49.904;14.390;2023-04-26T05:31:26;15.10;;;7.78;;
79640;SDS011;69115;49.904;14.390;2023-04-26T05:33:51;19.58;;;7.80;;
79640;SDS011;69115;49.904;14.390;2023-04-26T05:36:17;16.23;;;6.90;;
79640;SDS011;69115;49.904;14.390;2023-04-26T05:38:42;14.80;;;5.22;;
79640;SDS011;69115;49.904;14.390;2023-04-26T05:41:08;16.92;;;5.78;;
79640;SDS011;69115;49.904;14.390;2023-04-26T05:43:33;10.75;;;5.18;;
79640;SDS011;69115;49.904;14.390;2023-04-26T05:45:59;9.52;;;5.10;;
79640;SDS011;69115;49.904;14.390;2023-04-26T05:48:25;10.48;;;4.45;;
79640;SDS011;69115;49.904;14.390;2023-04-26T05:50:51;8.55;;;4.47;;
79640;SDS011;69115;49.904;14.390;2023-04-26T05:53:17;15.52;;;5.22;;
79640;SDS011;69115;49.904;14.390;2023-04-26T05:55:45;11.00;;;5.03;;
79640;SDS011;69115;49.904;14.390;2023-04-26T05:58:11;13.07;;;5.07;;
79640;SDS011;69115;49.904;14.390;2023-04-26T06:00:37;6.95;;;4.00;;
79640;SDS011;69115;49.904;14.390;2023-04-26T06:03:03;6.95;;;4.25;;
79640;SDS011;69115;49.904;14.390;2023-04-26T06:05:28;6.95;;;4.13;;
79640;SDS011;69115;49.904;14.390;2023-04-26T06:07:54;11.48;;;3.80;;
79640;SDS011;69115;49.904;14.390;2023-04-26T06:10:20;9.65;;;4.05;;
79640;SDS011;69115;49.904;14.390;2023-04-26T06:12:45;7.68;;;3.65;;
79640;SDS011;69115;49.904;14.390;2023-04-26T06:15:11;9.05;;;3.75;;
79640;SDS011;69115;49.904;14.390;2023-04-26T06:17:36;8.65;;;4.18;;
79640;SDS011;69115;49.904;14.390;2023-04-26T06:20:02;8.00;;;3.92;;
79640;SDS011;69115;49.904;14.390;2023-04-26T06:22:29;8.82;;;4.00;;
79640;SDS011;69115;49.904;14.390;2023-04-26T06:24:54;10.98;;;3.92;;
79640;SDS011;69115;49.904;14.390;2023-04-26T06:27:20;7.78;;;3.92;;
79640;SDS011;69115;49.904;14.390;2023-04-26T06:29:45;10.52;;;4.55;;
79640;SDS011;69115;49.904;14.390;2023-04-26T06:32:11;6.93;;;4.20;;
79640;SDS011;69115;49.904;14.390;2023-04-26T06:34:36;7.63;;;4.32;;
79640;SDS011;69115;49.904;14.390;2023-04-26T06:37:03;8.80;;;3.95;;
79640;SDS011;69115;49.904;14.390;2023-04-26T06:39:28;11.10;;;4.30;;
79640;SDS011;69115;49.904;14.390;2023-04-26T06:41:54;8.07;;;4.28;;
79640;SDS011;69115;49.904;14.390;2023-04-26T06:44:19;10.77;;;4.90;;
79640;SDS011;69115;49.904;14.390;2023-04-26T06:46:45;8.75;;;4.63;;
79640;SDS011;69115;49.904;14.390;2023-04-26T06:49:10;8.98;;;4.82;;
79640;SDS011;69115;49.904;14.390;2023-04-26T06:51:36;9.82;;;4.97;;
79640;SDS011;69115;49.904;14.390;2023-04-26T06:54:01;10.55;;;4.47;;
79640;SDS011;69115;49.904;14.390;2023-04-26T06:56:27;12.90;;;5.13;;
79640;SDS011;69115;49.904;14.390;2023-04-26T06:58:59;13.25;;;5.57;;
79640;SDS011;69115;49.904;14.390;2023-04-26T07:01:26;11.32;;;5.40;;
79640;SDS011;69115;49.904;14.390;2023-04-26T07:03:56;10.55;;;5.40;;
79640;SDS011;69115;49.904;14.390;2023-04-26T07:06:22;12.25;;;5.38;;
79640;SDS011;69115;49.904;14.390;2023-04-26T07:08:48;10.50;;;4.97;;
79640;SDS011;69115;49.904;14.390;2023-04-26T07:11:14;10.23;;;4.53;;
79640;SDS011;69115;49.904;14.390;2023-04-26T07:13:39;9.35;;;5.30;;
79640;SDS011;69115;49.904;14.390;2023-04-26T07:16:04;9.35;;;5.07;;
79640;SDS011;69115;49.904;14.390;2023-04-26T07:18:30;10.30;;;5.28;;
79640;SDS011;69115;49.904;14.390;2023-04-26T07:20:55;12.45;;;4.88;;
79640;SDS011;69115;49.904;14.390;2023-04-26T07:23:21;9.32;;;4.70;;
79640;SDS011;69115;49.904;14.390;2023-04-26T07:25:46;8.35;;;5.50;;
79640;SDS011;69115;49.904;14.390;2023-04-26T07:28:12;11.23;;;6.13;;
79640;SDS011;69115;49.904;14.390;2023-04-26T07:30:37;7.88;;;5.05;;
79640;SDS011;69115;49.904;14.390;2023-04-26T07:33:03;9.95;;;4.78;;
79640;SDS011;69115;49.904;14.390;2023-04-26T07:35:28;8.75;;;5.25;;
79640;SDS011;69115;49.904;14.390;2023-04-26T07:37:54;8.35;;;4.90;;
79640;SDS011;69115;49.904;14.390;2023-04-26T07:40:19;10.25;;;4.93;;
79640;SDS011;69115;49.904;14.390;2023-04-26T07:42:46;11.10;;;4.65;;
79640;SDS011;69115;49.904;14.390;2023-04-26T07:45:12;7.55;;;4.82;;
79640;SDS011;69115;49.904;14.390;2023-04-26T07:47:37;12.05;;;6.18;;
79640;SDS011;69115;49.904;14.390;2023-04-26T07:50:03;9.82;;;4.97;;
79640;SDS011;69115;49.904;14.390;2023-04-26T07:52:29;7.38;;;4.30;;
79640;SDS011;69115;49.904;14.390;2023-04-26T07:54:54;9.07;;;5.10;;
79640;SDS011;69115;49.904;14.390;2023-04-26T07:57:20;7.07;;;4.50;;
79640;SDS011;69115;49.904;14.390;2023-04-26T07:59:45;7.95;;;4.20;;
79640;SDS011;69115;49.904;14.390;2023-04-26T08:02:10;7.40;;;4.65;;
79640;SDS011;69115;49.904;14.390;2023-04-26T08:04:36;11.02;;;4.70;;
79640;SDS011;69115;49.904;14.390;2023-04-26T08:07:01;9.25;;;4.78;;
79640;SDS011;69115;49.904;14.390;2023-04-26T08:09:27;9.32;;;5.13;;
79640;SDS011;69115;49.904;14.390;2023-04-26T08:11:54;8.93;;;4.57;;
79640;SDS011;69115;49.904;14.390;2023-04-26T08:14:20;9.98;;;4.78;;
79640;SDS011;69115;49.904;14.390;2023-04-26T08:16:45;7.97;;;5.20;;
79640;SDS011;69115;49.904;14.390;2023-04-26T08:19:11;10.88;;;6.30;;
79640;SDS011;69115;49.904;14.390;2023-04-26T08:21:36;10.65;;;5.85;;
79640;SDS011;69115;49.904;14.390;2023-04-26T08:24:02;14.93;;;6.70;;
79640;SDS011;69115;49.904;14.390;2023-04-26T08:26:27;8.48;;;5.47;;
79640;SDS011;69115;49.904;14.390;2023-04-26T08:28:53;11.70;;;5.82;;
79640;SDS011;69115;49.904;14.390;2023-04-26T08:31:18;11.18;;;5.75;;
79640;SDS011;69115;49.904;14.390;2023-04-26T08:33:44;9.05;;;5.72;;
79640;SDS011;69115;49.904;14.390;2023-04-26T08:36:09;7.82;;;5.72;;
79640;SDS011;69115;49.904;14.390;2023-04-26T08:38:35;10.48;;;6.32;;
79640;SDS011;69115;49.904;14.390;2023-04-26T08:41:00;9.98;;;5.30;;
79640;SDS011;69115;49.904;14.390;2023-04-26T08:43:27;9.43;;;5.90;;
79640;SDS011;69115;49.904;14.390;2023-04-26T08:45:53;10.88;;;5.60;;
79640;SDS011;69115;49.904;14.390;2023-04-26T08:48:19;8.13;;;5.18;;
79640;SDS011;69115;49.904;14.390;2023-04-26T08:50:44;9.38;;;5.88;;
79640;SDS011;69115;49.904;14.390;2023-04-26T08:53:13;9.90;;;5.70;;
79640;SDS011;69115;49.904;14.390;2023-04-26T08:55:40;10.32;;;5.50;;
79640;SDS011;69115;49.904;14.390;2023-04-26T08:58:07;8.65;;;5.60;;
79640;SDS011;69115;49.904;14.390;2023-04-26T09:00:32;10.73;;;5.43;;
79640;SDS011;69115;49.904;14.390;2023-04-26T09:02:58;9.63;;;5.07;;
79640;SDS011;69115;49.904;14.390;2023-04-26T09:05:23;8.85;;;5.20;;
79640;SDS011;69115;49.904;14.390;2023-04-26T09:07:50;9.38;;;4.78;;
79640;SDS011;69115;49.904;14.390;2023-04-26T09:10:20;11.27;;;4.70;;
79640;SDS011;69115;49.904;14.390;2023-04-26T09:12:46;7.85;;;4.50;;
79640;SDS011;69115;49.904;14.390;2023-04-26T09:15:16;10.43;;;3.85;;
79640;SDS011;69115;49.904;14.390;2023-04-26T09:17:41;7.47;;;3.70;;
79640;SDS011;69115;49.904;14.390;2023-04-26T09:20:25;7.28;;;3.55;;
79640;SDS011;69115;49.904;14.390;2023-04-26T09:22:52;5.55;;;3.17;;
79640;SDS011;69115;49.904;14.390;2023-04-26T09:25:41;5.78;;;3.05;;
79640;SDS011;69115;49.904;14.390;2023-04-26T09:28:17;8.13;;;3.53;;
79640;SDS011;69115;49.904;14.390;2023-04-26T09:30:44;6.43;;;3.38;;
79640;SDS011;69115;49.904;14.390;2023-04-26T09:33:09;5.07;;;3.10;;
79640;SDS011;69115;49.904;14.390;2023-04-26T09:35:36;5.30;;;2.90;;
79640;SDS011;69115;49.904;14.390;2023-04-26T09:38:04;5.88;;;3.47;;
79640;SDS011;69115;49.904;14.390;2023-04-26T09:43:16;6.40;;;3.22;;
79640;SDS011;69115;49.904;14.390;2023-04-26T09:45:46;7.82;;;3.50;;
79640;SDS011;69115;49.904;14.390;2023-04-26T09:48:20;6.30;;;3.30;;
79640;SDS011;69115;49.904;14.390;2023-04-26T09:50:57;6.20;;;3.30;;
79640;SDS011;69115;49.904;14.390;2023-04-26T09:53:24;7.38;;;3.45;;
79640;SDS011;69115;49.904;14.390;2023-04-26T09:56:12;4.75;;;3.30;;
79640;SDS011;69115;49.904;14.390;2023-04-26T09:58:39;7.00;;;3.30;;
79640;SDS011;69115;49.904;14.390;2023-04-26T10:01:23;5.57;;;3.45;;
79640;SDS011;69115;49.904;14.390;2023-04-26T10:03:50;8.00;;;3.13;;
79640;SDS011;69115;49.904;14.390;2023-04-26T10:06:15;5.38;;;3.28;;
79640;SDS011;69115;49.904;14.390;2023-04-26T10:08:41;8.23;;;3.50;;
79640;SDS011;69115;49.904;14.390;2023-04-26T10:11:07;5.25;;;2.88;;
79640;SDS011;69115;49.904;14.390;2023-04-26T10:13:35;5.93;;;3.45;;
79640;SDS011;69115;49.904;14.390;2023-04-26T10:16:01;7.00;;;3.55;;
79640;SDS011;69115;49.904;14.390;2023-04-26T10:18:27;5.03;;;2.80;;
79640;SDS011;69115;49.904;14.390;2023-04-26T10:20:54;6.20;;;2.58;;
79640;SDS011;69115;49.904;14.390;2023-04-26T10:23:25;8.70;;;2.90;;
79640;SDS011;69115;49.904;14.390;2023-04-26T10:25:51;6.43;;;2.70;;
79640;SDS011;69115;49.904;14.390;2023-04-26T10:28:17;4.32;;;2.80;;
79640;SDS011;69115;49.904;14.390;2023-04-26T10:30:52;6.07;;;2.58;;
79640;SDS011;69115;49.904;14.390;2023-04-26T10:33:19;5.93;;;2.50;;
79640;SDS011;69115;49.904;14.390;2023-04-26T10:36:18;6.15;;;2.45;;
79640;SDS011;69115;49.904;14.390;2023-04-26T10:38:41;5.15;;;2.40;;
79640;SDS011;69115;49.904;14.390;2023-04-26T10:41:29;5.00;;;2.53;;
79640;SDS011;69115;49.904;14.390;2023-04-26T10:43:56;4.53;;;2.60;;
79640;SDS011;69115;49.904;14.390;2023-04-26T10:46:39;4.47;;;2.75;;
79640;SDS011;69115;49.904;14.390;2023-04-26T10:49:11;6.50;;;2.30;;
79640;SDS011;69115;49.904;14.390;2023-04-26T10:51:37;4.57;;;2.13;;
79640;SDS011;69115;49.904;14.390;2023-04-26T10:54:03;7.15;;;2.65;;
79640;SDS011;69115;49.904;14.390;2023-04-26T10:59:07;5.27;;;2.03;;
79640;SDS011;69115;49.904;14.390;2023-04-26T11:01:33;2.83;;;2.00;;
79640;SDS011;69115;49.904;14.390;2023-04-26T11:06:25;6.55;;;2.10;;
79640;SDS011;69115;49.904;14.390;2023-04-26T11:08:51;4.15;;;1.80;;
79640;SDS011;69115;49.904;14.390;2023-04-26T11:11:17;3.08;;;1.77;;
79640;SDS011;69115;49.904;14.390;2023-04-26T11:13:46;3.92;;;2.05;;
79640;SDS011;69115;49.904;14.390;2023-04-26T11:16:12;4.60;;;1.92;;
79640;SDS011;69115;49.904;14.390;2023-04-26T11:18:39;6.80;;;2.00;;
79640;SDS011;69115;49.904;14.390;2023-04-26T11:21:06;4.78;;;2.30;;
79640;SDS011;69115;49.904;14.390;2023-04-26T11:23:32;7.97;;;2.10;;
79640;SDS011;69115;49.904;14.390;2023-04-26T11:25:58;5.95;;;1.73;;
79640;SDS011;69115;49.904;14.390;2023-04-26T11:28:26;6.07;;;2.28;;
79640;SDS011;69115;49.904;14.390;2023-04-26T11:30:52;4.10;;;2.03;;
79640;SDS011;69115;49.904;14.390;2023-04-26T11:33:18;4.20;;;2.22;;
79640;SDS011;69115;49.904;14.390;2023-04-26T11:35:46;4.13;;;2.50;;
79640;SDS011;69115;49.904;14.390;2023-04-26T11:38:15;5.65;;;2.00;;
79640;SDS011;69115;49.904;14.390;2023-04-26T11:40:41;5.53;;;2.00;;
79640;SDS011;69115;49.904;14.390;2023-04-26T11:43:08;4.35;;;2.00;;
79640;SDS011;69115;49.904;14.390;2023-04-26T11:45:34;4.70;;;1.80;;
79640;SDS011;69115;49.904;14.390;2023-04-26T11:48:01;9.55;;;2.10;;
79640;SDS011;69115;49.904;14.390;2023-04-26T11:50:28;4.20;;;2.00;;
79640;SDS011;69115;49.904;14.390;2023-04-26T11:52:55;5.05;;;2.08;;
79640;SDS011;69115;49.904;14.390;2023-04-26T11:55:23;3.58;;;1.95;;
79640;SDS011;69115;49.904;14.390;2023-04-26T11:57:52;3.55;;;1.77;;
79640;SDS011;69115;49.904;14.390;2023-04-26T12:00:17;3.85;;;1.98;;
79640;SDS011;69115;49.904;14.390;2023-04-26T12:02:44;5.68;;;2.10;;
79640;SDS011;69115;49.904;14.390;2023-04-26T12:05:25;5.32;;;2.03;;
79640;SDS011;69115;49.904;14.390;2023-04-26T12:07:55;5.20;;;1.90;;
79640;SDS011;69115;49.904;14.390;2023-04-26T12:10:29;5.15;;;2.03;;
79640;SDS011;69115;49.904;14.390;2023-04-26T12:12:57;3.92;;;2.95;;
79640;SDS011;69115;49.904;14.390;2023-04-26T12:15:32;4.50;;;2.13;;
79640;SDS011;69115;49.904;14.390;2023-04-26T12:20:33;7.95;;;2.20;;
79640;SDS011;69115;49.904;14.390;2023-04-26T12:25:30;6.18;;;2.00;;
79640;SDS011;69115;49.904;14.390;2023-04-26T12:27:56;4.68;;;1.80;;
79640;SDS011;69115;49.904;14.390;2023-04-26T12:30:21;3.78;;;1.80;;
79640;SDS011;69115;49.904;14.390;2023-04-26T12:32:47;8.73;;;1.80;;
79640;SDS011;69115;49.904;14.390;2023-04-26T12:35:12;5.60;;;2.55;;
79640;SDS011;69115;49.904;14.390;2023-04-26T12:37:39;4.50;;;2.30;;
79640;SDS011;69115;49.904;14.390;2023-04-26T12:40:05;4.30;;;2.22;;
79640;SDS011;69115;49.904;14.390;2023-04-26T12:42:31;4.13;;;1.90;;
79640;SDS011;69115;49.904;14.390;2023-04-26T12:44:57;5.05;;;2.10;;
79640;SDS011;69115;49.904;14.390;2023-04-26T12:47:22;5.53;;;2.30;;
79640;SDS011;69115;49.904;14.390;2023-04-26T12:49:48;5.30;;;2.05;;
79640;SDS011;69115;49.904;14.390;2023-04-26T12:52:13;4.68;;;2.03;;
79640;SDS011;69115;49.904;14.390;2023-04-26T12:54:38;4.20;;;2.40;;
79640;SDS011;69115;49.904;14.390;2023-04-26T12:57:04;7.93;;;1.90;;
79640;SDS011;69115;49.904;14.390;2023-04-26T12:59:30;5.43;;;1.95;;
79640;SDS011;69115;49.904;14.390;2023-04-26T13:01:55;5.10;;;2.00;;
79640;SDS011;69115;49.904;14.390;2023-04-26T13:04:20;7.88;;;2.13;;
79640;SDS011;69115;49.904;14.390;2023-04-26T13:06:46;3.70;;;1.80;;
79640;SDS011;69115;49.904;14.390;2023-04-26T13:09:11;4.25;;;1.85;;
79640;SDS011;69115;49.904;14.390;2023-04-26T13:11:37;4.57;;;2.22;;
79640;SDS011;69115;49.904;14.390;2023-04-26T13:14:03;4.80;;;2.00;;
79640;SDS011;69115;49.904;14.390;2023-04-26T13:16:31;5.18;;;2.00;;
79640;SDS011;69115;49.904;14.390;2023-04-26T13:18:57;4.80;;;1.90;;
79640;SDS011;69115;49.904;14.390;2023-04-26T13:21:22;5.93;;;1.90;;
79640;SDS011;69115;49.904;14.390;2023-04-26T13:23:48;4.15;;;1.90;;
79640;SDS011;69115;49.904;14.390;2023-04-26T13:26:13;5.30;;;2.15;;
79640;SDS011;69115;49.904;14.390;2023-04-26T13:28:41;4.28;;;1.88;;
79640;SDS011;69115;49.904;14.390;2023-04-26T13:31:06;3.45;;;1.65;;
79640;SDS011;69115;49.904;14.390;2023-04-26T13:33:32;6.18;;;2.30;;
79640;SDS011;69115;49.904;14.390;2023-04-26T13:35:57;4.53;;;1.92;;
79640;SDS011;69115;49.904;14.390;2023-04-26T13:38:23;5.22;;;1.98;;
79640;SDS011;69115;49.904;14.390;2023-04-26T13:40:49;6.93;;;2.00;;
79640;SDS011;69115;49.904;14.390;2023-04-26T13:43:14;3.75;;;1.92;;
79640;SDS011;69115;49.904;14.390;2023-04-26T13:45:40;5.80;;;2.05;;
79640;SDS011;69115;49.904;14.390;2023-04-26T13:48:05;7.35;;;2.40;;
79640;SDS011;69115;49.904;14.390;2023-04-26T13:50:31;5.80;;;2.28;;
79640;SDS011;69115;49.904;14.390;2023-04-26T13:52:56;8.02;;;2.72;;
79640;SDS011;69115;49.904;14.390;2023-04-26T13:55:22;4.07;;;2.33;;
79640;SDS011;69115;49.904;14.390;2023-04-26T13:57:47;4.35;;;2.30;;
79640;SDS011;69115;49.904;14.390;2023-04-26T14:00:13;3.83;;;1.90;;
79640;SDS011;69115;49.904;14.390;2023-04-26T14:02:39;4.55;;;1.85;;
79640;SDS011;69115;49.904;14.390;2023-04-26T14:05:04;7.05;;;2.05;;
79640;SDS011;69115;49.904;14.390;2023-04-26T14:07:32;5.22;;;2.05;;
79640;SDS011;69115;49.904;14.390;2023-04-26T14:09:57;4.05;;;2.00;;
79640;SDS011;69115;49.904;14.390;2023-04-26T14:12:22;4.15;;;2.20;;
79640;SDS011;69115;49.904;14.390;2023-04-26T14:14:48;5.50;;;2.10;;
79640;SDS011;69115;49.904;14.390;2023-04-26T14:17:13;4.45;;;1.77;;
79640;SDS011;69115;49.904;14.390;2023-04-26T14:19:39;6.68;;;2.40;;
79640;SDS011;69115;49.904;14.390;2023-04-26T14:22:06;5.40;;;2.33;;
79640;SDS011;69115;49.904;14.390;2023-04-26T14:24:31;6.40;;;2.10;;
79640;SDS011;69115;49.904;14.390;2023-04-26T14:26:56;7.00;;;3.72;;
79640;SDS011;69115;49.904;14.390;2023-04-26T14:29:25;6.60;;;2.97;;
79640;SDS011;69115;49.904;14.390;2023-04-26T14:31:50;5.28;;;2.53;;
79640;SDS011;69115;49.904;14.390;2023-04-26T14:34:16;7.32;;;2.20;;
79640;SDS011;69115;49.904;14.390;2023-04-26T14:36:42;5.88;;;2.40;;